< Typhoon 200004 2000 Season Typhoon 200006 >
Typhoon 200005 (TEMBIN)
General InformationTrack Information on Google MapsDetailed Wind InformationList of All Images || Disaster Info.ResourceGoogle EarthGE AnimationAtom FeedGeoJSON
Detalied Best Track (Time Zone = UTC)
Year Month Day Hour Lat. Long. Pressure (hPa) Wind (kt) Class Image Chart
2000 7 17 00 19.8 145.0 1006 0 2 Image Chart
2000 7 17 06 20.8 144.5 1004 0 2 Image Chart
2000 7 17 12 21.6 144.0 1004 0 2 Image Chart
2000 7 17 18 22.2 143.4 1004 0 2 Image Chart
2000 7 18 00 22.7 142.9 1004 0 2 Image Chart
2000 7 18 06 23.5 142.2 1002 0 2 Image Chart
2000 7 18 12 24.2 141.9 1000 0 2 Image Chart
2000 7 18 18 25.1 141.7 1000 0 2 Image Chart
2000 7 19 00 26.7 142.2 998 35 3 Image Chart
2000 7 19 03 27.3 142.3 998 35 3 Image Chart
2000 7 19 06 27.7 142.4 996 35 3 Image Chart
2000 7 19 09 28.1 142.3 996 35 3 Image Chart
2000 7 19 12 28.4 142.3 996 35 3 Image Chart
2000 7 19 18 29.4 142.1 992 40 3 Image Chart
2000 7 20 00 30.0 141.9 992 40 3 Image Chart
2000 7 20 06 30.7 141.7 992 40 3 Image Chart
2000 7 20 12 31.4 141.7 992 40 3 Image Chart
2000 7 20 18 31.9 141.9 992 40 3 Image Chart
2000 7 21 00 32.4 142.0 994 35 3 Image Chart
2000 7 21 06 33.1 142.1 994 35 3 Image Chart
2000 7 21 12 34.1 142.3 994 35 3 Image Chart
2000 7 21 18 34.9 142.5 994 0 2 Image Chart
2000 7 22 00 35.9 143.0 996 0 2 Image Chart
2000 7 22 06 37.2 144.2 996 0 2 Image Chart
2000 7 22 12 38.7 146.0 996 0 2 Image Chart
2000 7 22 18 40.2 147.6 998 0 2 Image Chart
2000 7 23 00 42.0 148.4 1000 0 2 Image Chart
2000 7 23 06 43.0 151.9 1000 0 2 Image Chart
Japan Meteorological Agency Best Track Data | Correction Date : 2001-12-21
< Typhoon 200004 2000 Season Typhoon 200006 >

Help